createdAt,value
2022-08-24T00:02:06.238Z,6.70
2022-08-24T00:05:12.713Z,9.52
2022-08-24T00:11:20.399Z,6.45
2022-08-24T00:14:22.527Z,3.50
2022-08-24T00:17:25.531Z,4.80
2022-08-24T00:20:27.916Z,11.38
2022-08-24T00:23:31.143Z,5.43
2022-08-24T00:26:33.455Z,4.10
2022-08-24T00:29:36.094Z,4.47
2022-08-24T00:32:38.282Z,12.05
2022-08-24T00:35:40.480Z,8.88
2022-08-24T00:38:42.648Z,10.95
2022-08-24T00:41:47.164Z,5.22
2022-08-24T00:44:49.357Z,10.13
2022-08-24T00:47:59.458Z,6.15
2022-08-24T00:51:09.168Z,9.98
2022-08-24T00:54:16.995Z,6.32
2022-08-24T00:57:22.971Z,9.25
2022-08-24T01:00:31.645Z,3.25
2022-08-24T01:03:36.112Z,4.35
2022-08-24T01:06:38.545Z,7.18
2022-08-24T01:09:41.490Z,2.67
2022-08-24T01:13:00.114Z,13.27
2022-08-24T01:16:07.323Z,8.13
2022-08-24T01:19:38.306Z,4.95
2022-08-24T01:23:06.275Z,9.93
2022-08-24T01:26:13.154Z,5.72
2022-08-24T01:29:29.116Z,7.25
2022-08-24T01:32:33.187Z,3.13
2022-08-24T01:35:38.912Z,5.63
2022-08-24T01:38:41.625Z,5.68
2022-08-24T01:41:43.676Z,8.18
2022-08-24T01:44:46.929Z,4.22
2022-08-24T01:47:49.255Z,4.72
2022-08-24T01:50:52.815Z,5.72
2022-08-24T01:53:56.863Z,4.93
2022-08-24T01:56:59.778Z,2.35
2022-08-24T02:00:02.657Z,6.03
2022-08-24T02:03:15.148Z,3.72
2022-08-24T02:06:22.513Z,6.50
2022-08-24T02:09:25.036Z,5.57
2022-08-24T02:12:36.463Z,5.03
2022-08-24T02:15:42.673Z,5.60
2022-08-24T02:18:47.083Z,5.03
2022-08-24T02:21:49.445Z,2.60
2022-08-24T02:24:51.838Z,8.00
2022-08-24T02:27:53.899Z,4.85
2022-08-24T02:30:56.427Z,4.43
2022-08-24T02:33:59.006Z,5.88
2022-08-24T02:37:01.300Z,3.58
2022-08-24T02:40:05.959Z,6.35
2022-08-24T02:43:08.062Z,4.53
2022-08-24T02:46:18.309Z,4.45
2022-08-24T02:49:21.840Z,4.20
2022-08-24T02:52:25.109Z,5.10
2022-08-24T02:55:27.327Z,4.78
2022-08-24T02:58:29.484Z,6.93
2022-08-24T03:01:32.877Z,7.78
2022-08-24T03:04:35.150Z,7.93
2022-08-24T03:07:39.257Z,6.03
2022-08-24T03:10:41.709Z,12.13
2022-08-24T03:13:44.017Z,5.00
2022-08-24T03:16:47.238Z,9.25
2022-08-24T03:19:49.388Z,9.48
2022-08-24T03:22:52.636Z,8.45
2022-08-24T03:25:56.545Z,6.35
2022-08-24T03:28:59.031Z,10.38
2022-08-24T03:32:02.835Z,4.70
2022-08-24T03:35:05.766Z,6.95
2022-08-24T03:38:07.950Z,5.13
2022-08-24T03:41:11.289Z,7.03
2022-08-24T03:44:13.546Z,6.90
2022-08-24T03:47:15.678Z,14.63
2022-08-24T03:50:18.940Z,5.50
2022-08-24T03:53:21.559Z,6.20
2022-08-24T03:56:23.934Z,13.27
2022-08-24T03:59:26.234Z,5.63
2022-08-24T04:02:33.118Z,8.52
2022-08-24T04:05:37.179Z,8.10
2022-08-24T04:08:41.489Z,8.10
2022-08-24T04:11:45.639Z,8.98
2022-08-24T04:14:52.662Z,5.30
2022-08-24T04:17:55.026Z,6.60
2022-08-24T04:20:57.527Z,10.85
2022-08-24T04:24:01.402Z,7.45
2022-08-24T04:27:03.836Z,9.95
2022-08-24T04:30:08.104Z,10.80
2022-08-24T04:33:25.200Z,9.23
2022-08-24T04:36:27.373Z,12.27
2022-08-24T04:39:31.055Z,6.40
2022-08-24T04:42:37.561Z,10.52
2022-08-24T04:45:43.716Z,6.32
2022-08-24T04:48:47.980Z,7.43
2022-08-24T04:51:51.576Z,5.05
2022-08-24T04:54:53.897Z,9.82
2022-08-24T04:57:58.609Z,11.02
2022-08-24T05:01:01.300Z,9.32
2022-08-24T05:04:05.791Z,5.63
2022-08-24T05:07:08.536Z,6.57
2022-08-24T05:10:11.508Z,5.45
2022-08-24T05:13:15.322Z,6.03
2022-08-24T05:16:18.185Z,11.32
2022-08-24T05:19:21.365Z,5.07
2022-08-24T05:22:23.611Z,12.73
2022-08-24T05:25:29.343Z,8.15
2022-08-24T05:28:33.776Z,12.02
2022-08-24T05:31:36.041Z,9.23
2022-08-24T05:34:43.586Z,9.38
2022-08-24T05:37:45.918Z,8.68
2022-08-24T05:40:51.366Z,11.98
2022-08-24T05:43:57.646Z,13.77
2022-08-24T05:47:01.391Z,10.57
2022-08-24T05:50:04.848Z,6.38
2022-08-24T05:53:06.879Z,4.25
2022-08-24T05:56:13.446Z,6.43
2022-08-24T05:59:18.099Z,15.52
2022-08-24T06:02:21.228Z,7.55
2022-08-24T06:05:24.137Z,7.93
2022-08-24T06:08:26.574Z,14.80
2022-08-24T06:11:32.749Z,7.68
2022-08-24T06:14:36.701Z,4.90
2022-08-24T06:17:40.517Z,10.02
2022-08-24T06:20:43.298Z,14.05
2022-08-24T06:23:49.674Z,5.40
2022-08-24T06:27:11.623Z,12.38
2022-08-24T06:30:14.150Z,8.30
2022-08-24T06:33:39.938Z,9.57
2022-08-24T06:36:42.393Z,13.70
2022-08-24T06:39:44.886Z,11.05
2022-08-24T06:42:48.694Z,7.22
2022-08-24T06:46:20.839Z,14.38
2022-08-24T06:49:25.883Z,10.55
2022-08-24T06:52:28.636Z,12.45
2022-08-24T06:55:31.597Z,11.23
2022-08-24T06:58:34.937Z,4.72
2022-08-24T07:01:40.785Z,16.67
2022-08-24T07:04:43.122Z,15.00
2022-08-24T07:08:08.768Z,17.00
2022-08-24T07:11:17.813Z,8.70
2022-08-24T07:14:20.398Z,16.83
2022-08-24T07:17:23.718Z,15.60
2022-08-24T07:20:26.051Z,8.52
2022-08-24T07:23:44.630Z,24.08
2022-08-24T07:26:49.001Z,11.25
2022-08-24T07:30:16.166Z,9.75
2022-08-24T07:33:17.263Z,20.13
2022-08-24T07:36:22.467Z,36.10
2022-08-24T07:39:25.669Z,12.07
2022-08-24T07:42:32.015Z,19.10
2022-08-24T07:45:35.895Z,18.27
2022-08-24T07:48:38.321Z,16.48
2022-08-24T07:51:44.856Z,26.33
2022-08-24T07:57:52.343Z,21.73
2022-08-24T08:00:56.136Z,28.27
2022-08-24T08:03:58.385Z,10.18
2022-08-24T08:07:01.914Z,25.08
2022-08-24T08:10:08.316Z,21.60
2022-08-24T08:13:12.062Z,27.95
2022-08-24T08:16:14.233Z,25.67
2022-08-24T08:19:17.507Z,15.25
2022-08-24T08:22:38.571Z,12.80
2022-08-24T08:26:18.317Z,20.13
2022-08-24T08:29:34.312Z,20.55
2022-08-24T08:32:37.191Z,19.17
2022-08-24T08:35:40.707Z,12.20
2022-08-24T08:38:43.194Z,24.90
2022-08-24T08:42:06.488Z,13.88
2022-08-24T08:45:27.662Z,20.55
2022-08-24T08:49:15.519Z,18.52
2022-08-24T08:52:55.045Z,16.80
2022-08-24T08:56:15.414Z,20.55
2022-08-24T08:59:32.881Z,20.83
2022-08-24T09:03:00.074Z,15.70
2022-08-24T09:06:24.651Z,20.15
2022-08-24T09:09:51.933Z,16.70
2022-08-24T09:13:06.151Z,21.27
2022-08-24T09:16:18.176Z,24.58
2022-08-24T09:19:48.834Z,19.42
2022-08-24T09:23:05.062Z,21.30
2022-08-24T09:26:27.093Z,14.07
2022-08-24T09:29:46.113Z,24.60
2022-08-24T09:33:09.258Z,15.68
2022-08-24T09:36:36.976Z,18.02
2022-08-24T09:39:54.381Z,12.90
2022-08-24T09:43:18.006Z,22.77
2022-08-24T09:46:28.863Z,20.65
2022-08-24T09:49:52.832Z,18.50
2022-08-24T09:53:19.781Z,15.38
2022-08-24T09:56:40.026Z,21.15
2022-08-24T09:59:53.969Z,3.90
2022-08-24T10:03:01.847Z,15.32
2022-08-24T10:06:22.548Z,15.20
2022-08-24T10:09:45.746Z,6.80
2022-08-24T10:13:12.435Z,8.45
2022-08-24T10:16:14.939Z,11.27
2022-08-24T10:19:58.844Z,18.65
2022-08-24T10:23:19.506Z,8.55
2022-08-24T10:26:46.051Z,26.77
2022-08-24T10:30:27.808Z,16.23
2022-08-24T10:33:39.489Z,11.00
2022-08-24T10:36:56.774Z,13.30
2022-08-24T10:40:19.472Z,21.98
2022-08-24T10:43:36.715Z,10.38
2022-08-24T10:46:53.514Z,19.58
2022-08-24T10:50:39.557Z,29.92
2022-08-24T10:53:49.278Z,11.15
2022-08-24T10:57:12.270Z,10.93
2022-08-24T11:00:22.948Z,16.60
2022-08-24T11:06:36.388Z,23.73
2022-08-24T11:09:53.472Z,18.65
2022-08-24T11:12:56.227Z,23.15
2022-08-24T11:16:01.907Z,17.00
2022-08-24T11:19:13.302Z,24.38
2022-08-24T11:22:58.543Z,11.65
2022-08-24T11:26:12.918Z,19.63
2022-08-24T11:29:15.117Z,13.43
2022-08-24T11:32:46.486Z,14.30
2022-08-24T11:35:48.627Z,28.58
2022-08-24T11:39:23.996Z,27.50
2022-08-24T11:42:42.214Z,16.60
2022-08-24T11:46:02.831Z,23.45
2022-08-24T11:49:47.041Z,22.83
2022-08-24T11:53:12.519Z,27.35
2022-08-24T11:56:21.546Z,35.05
2022-08-24T12:00:05.742Z,23.65
2022-08-24T12:03:44.520Z,22.15
2022-08-24T12:07:11.570Z,17.08
2022-08-24T12:10:38.345Z,19.70
2022-08-24T12:14:18.598Z,29.67
2022-08-24T12:17:23.782Z,15.65
2022-08-24T12:20:43.608Z,18.38
2022-08-24T12:23:54.724Z,26.90
2022-08-24T12:27:04.011Z,11.68
2022-08-24T12:30:13.700Z,15.00
2022-08-24T12:33:18.864Z,19.08
2022-08-24T12:36:51.692Z,27.95
2022-08-24T12:40:13.998Z,30.95
2022-08-24T12:43:31.481Z,31.05
2022-08-24T12:46:34.852Z,27.70
2022-08-24T12:49:50.822Z,27.17
2022-08-24T12:53:14.658Z,29.90
2022-08-24T12:56:50.224Z,15.60
2022-08-24T12:59:57.521Z,18.75
2022-08-24T13:03:04.895Z,8.50
2022-08-24T13:06:11.925Z,24.08
2022-08-24T13:09:37.084Z,29.02
2022-08-24T13:12:42.338Z,17.17
2022-08-24T13:15:54.479Z,14.90
2022-08-24T13:19:32.090Z,21.00
2022-08-24T13:22:46.773Z,20.90
2022-08-24T13:25:52.011Z,26.13
2022-08-24T13:28:56.861Z,13.35
2022-08-24T13:32:00.430Z,11.55
2022-08-24T13:35:37.267Z,22.75
2022-08-24T13:39:13.461Z,20.48
2022-08-24T13:42:23.538Z,31.20
2022-08-24T13:45:52.705Z,28.52
2022-08-24T13:49:04.782Z,20.70
2022-08-24T13:52:45.367Z,28.20
2022-08-24T13:55:47.480Z,29.58
2022-08-24T13:59:05.411Z,15.40
2022-08-24T14:02:14.871Z,11.10
2022-08-24T14:05:45.869Z,7.13
2022-08-24T14:09:11.537Z,20.20
2022-08-24T14:12:45.824Z,23.98
2022-08-24T14:16:18.541Z,21.98
2022-08-24T14:19:47.422Z,34.53
2022-08-24T14:23:11.420Z,20.15
2022-08-24T14:26:37.042Z,16.05
2022-08-24T14:29:41.986Z,24.60
2022-08-24T14:33:08.265Z,28.65
2022-08-24T14:36:24.834Z,27.45
2022-08-24T14:39:39.023Z,19.80
2022-08-24T14:43:03.877Z,21.98
2022-08-24T14:46:21.095Z,24.48
2022-08-24T14:49:39.135Z,30.65
2022-08-24T14:52:51.208Z,20.77
2022-08-24T14:56:25.210Z,29.38
2022-08-24T14:59:38.234Z,36.53
2022-08-24T15:02:55.864Z,31.27
2022-08-24T15:06:26.234Z,27.33
2022-08-24T15:09:36.628Z,25.15
2022-08-24T15:12:44.293Z,24.40
2022-08-24T15:15:55.869Z,32.08
2022-08-24T15:19:06.595Z,30.63
2022-08-24T15:22:21.994Z,27.63
2022-08-24T15:25:37.076Z,33.55
2022-08-24T15:28:55.271Z,23.20
2022-08-24T15:32:07.695Z,31.80
2022-08-24T15:35:28.436Z,24.25
2022-08-24T15:38:30.467Z,26.17
2022-08-24T15:41:38.141Z,23.67
2022-08-24T15:44:43.848Z,24.77
2022-08-24T15:47:51.905Z,32.42
2022-08-24T15:53:58.438Z,23.08
2022-08-24T15:57:18.680Z,19.52
2022-08-24T16:00:55.942Z,26.67
2022-08-24T16:04:01.257Z,22.13
2022-08-24T16:07:03.615Z,37.25
2022-08-24T16:10:12.408Z,27.67
2022-08-24T16:13:20.930Z,24.85
2022-08-24T16:16:33.594Z,30.20
2022-08-24T16:19:35.699Z,30.27
2022-08-24T16:22:58.469Z,27.63
2022-08-24T16:26:22.552Z,33.40
2022-08-24T16:29:41.445Z,29.17
2022-08-24T16:32:57.933Z,36.95
2022-08-24T16:36:03.917Z,41.88
2022-08-24T16:39:06.167Z,24.70
2022-08-24T16:42:15.935Z,23.08
2022-08-24T16:45:21.813Z,34.55
2022-08-24T16:48:23.946Z,59.20
2022-08-24T16:51:26.245Z,22.63
2022-08-24T16:54:28.699Z,25.05
2022-08-24T16:57:36.522Z,19.15
2022-08-24T17:00:38.633Z,27.42
2022-08-24T17:03:41.081Z,24.42
2022-08-24T17:06:43.481Z,24.15
2022-08-24T17:09:47.333Z,26.52
2022-08-24T17:12:49.800Z,30.25
2022-08-24T17:15:53.823Z,44.20
2022-08-24T17:18:59.606Z,15.75
2022-08-24T17:22:01.794Z,36.53
2022-08-24T17:25:05.345Z,19.75
2022-08-24T17:28:10.559Z,28.77
2022-08-24T17:31:13.640Z,24.05
2022-08-24T17:34:16.379Z,33.72
2022-08-24T17:37:19.111Z,31.92
2022-08-24T17:40:25.124Z,19.55
2022-08-24T17:43:27.527Z,21.88
2022-08-24T17:46:29.819Z,34.17
2022-08-24T17:49:32.927Z,18.50
2022-08-24T17:52:35.051Z,33.13
2022-08-24T17:55:37.149Z,24.92
2022-08-24T17:58:59.346Z,24.75
2022-08-24T18:02:07.355Z,19.88
2022-08-24T18:05:12.229Z,27.23
2022-08-24T18:08:14.565Z,25.85
2022-08-24T18:11:16.919Z,31.75
2022-08-24T18:14:19.194Z,30.80
2022-08-24T18:17:39.033Z,21.73
2022-08-24T18:20:42.085Z,26.17
2022-08-24T18:23:44.381Z,27.88
2022-08-24T18:26:48.683Z,20.42
2022-08-24T18:29:54.839Z,16.92
2022-08-24T18:32:57.983Z,25.23
2022-08-24T18:36:00.213Z,23.38
2022-08-24T18:39:06.884Z,29.25
2022-08-24T18:42:11.028Z,15.88
2022-08-24T18:45:13.276Z,22.70
2022-08-24T18:48:15.651Z,20.75
2022-08-24T18:51:20.314Z,21.08
2022-08-24T18:54:26.544Z,18.27
2022-08-24T18:57:28.984Z,36.08
2022-08-24T19:00:31.620Z,22.65
2022-08-24T19:03:34.554Z,16.42
2022-08-24T19:06:36.670Z,23.30
2022-08-24T19:09:38.801Z,23.63
2022-08-24T19:12:47.033Z,28.33
2022-08-24T19:15:49.811Z,18.75
2022-08-24T19:18:52.344Z,30.98
2022-08-24T19:21:54.695Z,23.80
2022-08-24T19:24:58.602Z,18.98
2022-08-24T19:28:01.529Z,21.52
2022-08-24T19:31:07.516Z,29.92
2022-08-24T19:34:10.224Z,19.92
2022-08-24T19:37:15.533Z,20.15
2022-08-24T19:40:21.543Z,25.67
2022-08-24T19:43:28.715Z,22.65
2022-08-24T19:46:31.496Z,28.25
2022-08-24T19:49:34.574Z,15.95
2022-08-24T19:52:38.270Z,24.08
2022-08-24T19:55:40.499Z,31.08
2022-08-24T19:58:59.650Z,36.88
2022-08-24T20:02:01.848Z,23.45
2022-08-24T20:05:04.197Z,36.13
2022-08-24T20:08:06.400Z,21.60
2022-08-24T20:11:09.340Z,29.30
2022-08-24T20:14:11.371Z,18.80
2022-08-24T20:17:13.543Z,20.85
2022-08-24T20:20:19.864Z,22.55
2022-08-24T20:23:22.099Z,23.17
2022-08-24T20:26:29.768Z,12.88
2022-08-24T20:29:32.029Z,27.60
2022-08-24T20:32:34.403Z,25.38
2022-08-24T20:35:37.149Z,39.20
2022-08-24T20:38:40.513Z,22.20
2022-08-24T20:41:44.293Z,26.83
2022-08-24T20:44:46.370Z,23.25
2022-08-24T20:47:51.490Z,23.38
2022-08-24T20:50:54.019Z,14.48
2022-08-24T20:53:56.153Z,18.58
2022-08-24T20:56:58.859Z,33.03
2022-08-24T21:00:00.957Z,22.20
2022-08-24T21:03:03.283Z,31.23
2022-08-24T21:06:07.253Z,25.38
2022-08-24T21:09:14.062Z,22.90
2022-08-24T21:12:16.628Z,34.22
2022-08-24T21:15:19.149Z,19.27
2022-08-24T21:18:21.526Z,24.40
2022-08-24T21:21:23.652Z,18.20
2022-08-24T21:24:26.105Z,15.65
2022-08-24T21:27:28.347Z,23.10
2022-08-24T21:30:30.959Z,14.85
2022-08-24T21:33:55.808Z,31.13
2022-08-24T21:36:58.158Z,18.63
2022-08-24T21:40:02.198Z,19.30
2022-08-24T21:43:09.283Z,26.33
2022-08-24T21:46:18.038Z,24.75
2022-08-24T21:49:20.897Z,34.47
2022-08-24T21:52:23.283Z,14.50
2022-08-24T21:55:27.694Z,28.55
2022-08-24T21:58:29.977Z,18.08
2022-08-24T22:01:32.737Z,32.95
2022-08-24T22:04:34.945Z,18.15
2022-08-24T22:07:37.718Z,19.73
2022-08-24T22:10:39.784Z,12.82
2022-08-24T22:13:42.760Z,18.35
2022-08-24T22:16:45.491Z,12.00
2022-08-24T22:19:47.528Z,24.45
2022-08-24T22:22:49.574Z,14.15
2022-08-24T22:25:53.598Z,19.92
2022-08-24T22:28:56.882Z,20.48
2022-08-24T22:31:59.052Z,13.75
2022-08-24T22:35:01.159Z,12.43
2022-08-24T22:38:03.458Z,28.88
2022-08-24T22:41:08.003Z,16.08
2022-08-24T22:44:19.231Z,19.15
2022-08-24T22:47:21.297Z,17.83
2022-08-24T22:50:23.434Z,9.15
2022-08-24T22:53:25.872Z,28.10
2022-08-24T22:56:31.217Z,15.27
2022-08-24T22:59:40.101Z,17.45
2022-08-24T23:02:42.337Z,16.42
2022-08-24T23:05:44.646Z,19.23
2022-08-24T23:08:46.782Z,7.35
2022-08-24T23:11:48.995Z,11.52
2022-08-24T23:14:52.462Z,11.00
2022-08-24T23:17:54.606Z,5.88
2022-08-24T23:20:57.084Z,14.57
2022-08-24T23:23:59.210Z,14.35
2022-08-24T23:27:02.784Z,16.95
2022-08-24T23:30:07.766Z,24.10
2022-08-24T23:33:09.935Z,12.45
2022-08-24T23:36:16.123Z,17.60
2022-08-24T23:39:19.253Z,20.25
2022-08-24T23:42:21.395Z,9.88
2022-08-24T23:45:28.493Z,17.52
2022-08-24T23:48:33.527Z,21.95
2022-08-24T23:51:36.564Z,21.40
2022-08-24T23:54:38.711Z,25.20
2022-08-24T23:57:41.276Z,15.45
